Time;durP1;ratioP1;P1;durP2;ratioP2;P2;SDS_P1;SDS_P2;PMS_P1;PMS_P2;Temp;Humidity;BMP_temperature;BMP_pressure;BME280_temperature;BME280_humidity;BME280_pressure;Samples;Min_cycle;Max_cycle;Signal;HPM_P1;HPM_P2
2023/04/19 00:00:40;;;;;;;13.93;8.70;;;11.60;99.90;;;;;;5077215;28;20050;-68
2023/04/19 00:03:07;;;;;;;16.55;8.90;;;11.70;99.90;;;;;;5077380;28;20017;-68
2023/04/19 00:05:32;;;;;;;14.80;7.88;;;11.70;99.90;;;;;;5077143;28;20016;-68
2023/04/19 00:07:58;;;;;;;16.10;8.40;;;11.70;99.90;;;;;;5076064;28;20055;-68
2023/04/19 00:10:24;;;;;;;16.05;8.65;;;11.80;99.90;;;;;;5076120;28;20028;-68
2023/04/19 00:12:50;;;;;;;18.55;9.13;;;11.80;99.90;;;;;;5076917;28;20099;-68
2023/04/19 00:15:19;;;;;;;13.57;8.07;;;11.80;99.90;;;;;;5077143;28;20085;-68
2023/04/19 00:17:47;;;;;;;16.77;8.65;;;11.80;99.90;;;;;;5076795;28;20032;-68
2023/04/19 00:20:13;;;;;;;14.45;7.30;;;11.80;99.90;;;;;;5076343;28;20084;-68
2023/04/19 00:22:39;;;;;;;16.45;8.85;;;11.80;99.90;;;;;;5077287;28;20029;-68
2023/04/19 00:25:05;;;;;;;14.95;8.15;;;11.70;99.90;;;;;;5075918;28;20086;-68
2023/04/19 00:27:31;;;;;;;14.50;8.13;;;11.70;99.90;;;;;;5076737;28;20028;-68
2023/04/19 00:29:56;;;;;;;15.38;8.30;;;11.70;99.90;;;;;;5076682;28;20024;-68
2023/04/19 00:32:22;;;;;;;13.90;8.10;;;11.70;99.90;;;;;;5076775;28;20031;-68
2023/04/19 00:34:48;;;;;;;20.42;7.93;;;11.70;99.90;;;;;;5075918;28;20025;-68
2023/04/19 00:37:14;;;;;;;14.98;8.20;;;11.60;99.90;;;;;;5078734;28;20122;-68
2023/04/19 00:39:40;;;;;;;16.40;7.50;;;11.50;99.90;;;;;;5081596;28;20089;-68
2023/04/19 00:42:06;;;;;;;18.70;8.40;;;11.50;99.90;;;;;;5080989;28;20020;-68
2023/04/19 00:44:34;;;;;;;15.13;7.60;;;11.50;99.90;;;;;;5080050;28;20021;-68
2023/04/19 00:47:00;;;;;;;16.75;8.25;;;11.60;99.90;;;;;;5079869;28;20024;-68
2023/04/19 00:49:26;;;;;;;13.23;7.78;;;11.60;99.90;;;;;;5079606;28;20027;-68
2023/04/19 00:51:53;;;;;;;12.13;7.05;;;11.60;99.90;;;;;;5079581;28;20021;-68
2023/04/19 00:54:19;;;;;;;15.13;8.15;;;11.50;99.90;;;;;;5080621;28;20047;-68
2023/04/19 00:56:45;;;;;;;11.48;6.95;;;11.50;99.90;;;;;;5080424;28;20021;-68
2023/04/19 00:59:15;;;;;;;12.32;7.47;;;11.50;99.90;;;;;;5079435;28;20025;-68
2023/04/19 01:01:41;;;;;;;14.65;7.47;;;11.50;99.90;;;;;;5080473;28;20096;-68
2023/04/19 01:04:07;;;;;;;12.55;7.53;;;11.50;99.90;;;;;;5080343;28;20024;-68
2023/04/19 01:06:39;;;;;;;13.35;6.70;;;11.50;99.90;;;;;;5079514;28;20115;-68
2023/04/19 01:09:04;;;;;;;12.30;7.03;;;11.60;99.90;;;;;;5079997;28;20107;-68
2023/04/19 01:11:30;;;;;;;10.32;6.82;;;11.60;99.90;;;;;;5080512;28;20052;-68
2023/04/19 01:13:57;;;;;;;11.60;6.85;;;11.60;99.90;;;;;;5079331;28;20021;-68
2023/04/19 01:16:25;;;;;;;15.02;7.60;;;11.70;99.90;;;;;;5079768;28;20031;-68
2023/04/19 01:18:51;;;;;;;15.20;8.32;;;11.60;99.90;;;;;;5079696;28;20107;-68
2023/04/19 01:21:17;;;;;;;14.10;7.72;;;11.50;99.90;;;;;;5078980;28;20120;-68
2023/04/19 01:23:43;;;;;;;14.25;7.88;;;11.50;99.90;;;;;;5080199;28;20103;-68
2023/04/19 01:26:09;;;;;;;13.57;7.80;;;11.40;99.90;;;;;;5079293;28;20105;-68
2023/04/19 01:28:34;;;;;;;16.40;8.32;;;11.40;99.90;;;;;;5078709;28;20032;-68
2023/04/19 01:31:00;;;;;;;15.18;8.02;;;11.50;99.90;;;;;;5078993;28;20051;-68
2023/04/19 01:33:28;;;;;;;13.27;7.95;;;11.60;99.90;;;;;;5079689;28;20017;-68
2023/04/19 01:35:53;;;;;;;13.52;8.45;;;11.60;99.90;;;;;;5078877;28;20054;-68
2023/04/19 01:38:19;;;;;;;15.90;8.15;;;11.60;99.90;;;;;;5078807;28;20036;-68
2023/04/19 01:40:45;;;;;;;15.00;8.52;;;11.60;99.90;;;;;;5079036;28;20023;-68
2023/04/19 01:43:13;;;;;;;17.17;8.82;;;11.60;99.90;;;;;;5078878;28;20059;-68
2023/04/19 01:45:38;;;;;;;18.70;8.75;;;11.60;99.90;;;;;;5078608;28;20052;-68
2023/04/19 01:48:04;;;;;;;14.15;8.18;;;11.60;99.90;;;;;;5078181;28;20021;-68
2023/04/19 01:50:33;;;;;;;16.25;8.68;;;11.60;99.90;;;;;;5078489;28;20054;-68
2023/04/19 01:52:59;;;;;;;14.80;8.18;;;11.60;99.90;;;;;;5078471;28;20021;-68
2023/04/19 01:55:25;;;;;;;17.23;9.43;;;11.60;99.90;;;;;;5079661;28;20020;-68
2023/04/19 01:57:52;;;;;;;17.70;8.82;;;11.70;99.90;;;;;;5078646;28;20027;-68
2023/04/19 02:00:18;;;;;;;13.75;8.43;;;11.80;99.90;;;;;;5078399;28;20025;-68
2023/04/19 02:02:44;;;;;;;17.50;8.82;;;11.80;99.90;;;;;;5079324;28;20051;-68
2023/04/19 02:05:13;;;;;;;17.38;8.48;;;11.80;99.90;;;;;;5078228;28;20029;-68
2023/04/19 02:07:38;;;;;;;14.73;8.35;;;11.80;99.90;;;;;;5078255;28;20063;-68
2023/04/19 02:10:05;;;;;;;14.13;8.80;;;11.80;99.90;;;;;;5078540;28;20036;-68
2023/04/19 02:12:32;;;;;;;15.63;8.65;;;11.80;99.90;;;;;;5078302;28;20025;-68
2023/04/19 02:15:03;;;;;;;13.95;8.13;;;11.80;99.90;;;;;;5078148;28;20094;-68
2023/04/19 02:17:29;;;;;;;17.13;9.77;;;11.70;99.90;;;;;;5078161;28;20024;-68
2023/04/19 02:19:54;;;;;;;13.38;8.15;;;11.60;99.90;;;;;;5078014;28;20025;-68
2023/04/19 02:22:20;;;;;;;16.10;9.02;;;11.70;99.90;;;;;;5079428;28;20028;-68
2023/04/19 02:24:49;;;;;;;14.93;8.82;;;11.70;99.90;;;;;;5077857;28;20024;-68
2023/04/19 02:27:15;;;;;;;15.38;7.90;;;11.70;99.90;;;;;;5077846;28;20070;-68
2023/04/19 02:29:40;;;;;;;14.88;7.82;;;11.70;99.90;;;;;;5077719;28;20020;-68
2023/04/19 02:32:06;;;;;;;15.20;8.57;;;11.80;99.90;;;;;;5078600;28;20077;-68
2023/04/19 02:34:33;;;;;;;12.85;8.13;;;11.80;99.90;;;;;;5077750;28;20024;-68
2023/04/19 02:36:58;;;;;;;19.85;7.78;;;11.80;99.90;;;;;;5077978;28;20087;-68
2023/04/19 02:39:24;;;;;;;14.77;8.23;;;11.80;99.90;;;;;;5077716;28;20082;-68
2023/04/19 02:41:49;;;;;;;16.33;8.07;;;11.70;99.90;;;;;;5077569;28;20027;-68
2023/04/19 02:44:15;;;;;;;16.10;8.23;;;11.70;99.90;;;;;;5077676;28;20020;-68
2023/04/19 02:46:41;;;;;;;16.50;9.02;;;11.60;99.90;;;;;;5077373;28;20024;-68
2023/04/19 02:49:06;;;;;;;17.65;9.90;;;11.60;99.90;;;;;;5077473;28;20020;-68
2023/04/19 02:51:32;;;;;;;19.67;10.30;;;11.60;99.90;;;;;;5077659;28;20017;-68
2023/04/19 02:53:57;;;;;;;15.05;8.52;;;11.60;99.90;;;;;;5077607;28;20119;-68
2023/04/19 02:56:23;;;;;;;15.45;8.80;;;11.60;99.90;;;;;;5077664;28;20078;-68
2023/04/19 02:58:48;;;;;;;18.70;9.05;;;11.60;99.90;;;;;;5077096;28;20044;-68
2023/04/19 03:01:14;;;;;;;17.48;9.43;;;11.60;99.90;;;;;;5077227;28;20182;-68
2023/04/19 03:03:40;;;;;;;17.90;9.13;;;11.70;99.90;;;;;;5077183;28;20020;-69
2023/04/19 03:06:05;;;;;;;17.77;9.45;;;11.60;99.90;;;;;;5078094;28;20028;-68
2023/04/19 03:08:31;;;;;;;17.55;9.10;;;11.60;99.90;;;;;;5077113;28;20020;-68
2023/04/19 03:10:57;;;;;;;17.65;8.57;;;11.60;99.90;;;;;;5076940;28;20028;-68
2023/04/19 03:13:23;;;;;;;15.18;9.27;;;11.70;99.90;;;;;;5076983;28;20030;-68
2023/04/19 03:15:49;;;;;;;17.92;9.10;;;11.70;99.90;;;;;;5077264;28;20024;-68
2023/04/19 03:18:16;;;;;;;13.88;8.45;;;11.70;99.90;;;;;;5077028;28;20034;-68
2023/04/19 03:20:41;;;;;;;17.58;9.63;;;11.70;99.90;;;;;;5077416;28;20025;-68
2023/04/19 03:23:07;;;;;;;14.77;8.43;;;11.60;99.90;;;;;;5076849;28;20030;-68
2023/04/19 03:25:32;;;;;;;23.55;9.57;;;11.60;99.90;;;;;;5077838;28;20036;-68
2023/04/19 03:27:58;;;;;;;17.25;9.18;;;11.50;99.90;;;;;;5077493;28;20039;-68
2023/04/19 03:30:23;;;;;;;20.23;8.65;;;11.40;99.90;;;;;;5076933;28;20048;-68
2023/04/19 03:32:50;;;;;;;17.17;9.20;;;11.40;99.90;;;;;;5077414;28;20040;-68
2023/04/19 03:35:16;;;;;;;17.73;8.88;;;11.50;99.90;;;;;;5076535;28;20111;-68
2023/04/19 03:37:42;;;;;;;16.90;8.40;;;11.60;99.90;;;;;;5076853;28;20052;-68
2023/04/19 03:40:10;;;;;;;17.05;8.77;;;11.50;99.90;;;;;;5076496;28;20032;-68
2023/04/19 03:42:35;;;;;;;16.40;8.60;;;11.50;99.90;;;;;;5076997;28;20041;-68
2023/04/19 03:45:01;;;;;;;18.77;9.32;;;11.50;99.90;;;;;;5076485;28;20032;-68
2023/04/19 03:47:26;;;;;;;18.08;9.32;;;11.40;99.90;;;;;;5076472;28;20031;-68
2023/04/19 03:49:52;;;;;;;17.65;9.02;;;11.50;99.90;;;;;;5076581;28;20031;-68
2023/04/19 03:52:18;;;;;;;16.33;8.95;;;11.50;99.90;;;;;;5077466;28;20103;-68
2023/04/19 03:54:44;;;;;;;19.27;8.88;;;11.40;99.90;;;;;;5076263;28;20024;-68
2023/04/19 03:57:12;;;;;;;16.92;8.38;;;11.40;99.90;;;;;;5076351;28;20016;-68
2023/04/19 03:59:37;;;;;;;17.13;8.75;;;11.50;99.90;;;;;;5076560;28;20078;-68
2023/04/19 04:02:04;;;;;;;15.98;8.85;;;11.50;99.90;;;;;;5076571;28;20028;-68
2023/04/19 04:04:30;;;;;;;14.93;8.15;;;11.50;99.90;;;;;;5077082;28;20070;-68
2023/04/19 04:06:56;;;;;;;14.07;8.13;;;11.40;99.90;;;;;;5076465;28;20025;-68
2023/04/19 04:09:21;;;;;;;16.58;8.52;;;11.40;99.90;;;;;;5076576;28;20031;-68
2023/04/19 04:11:47;;;;;;;13.20;7.25;;;11.40;99.90;;;;;;5075549;28;20043;-68
2023/04/19 04:14:12;;;;;;;13.32;7.75;;;11.40;99.90;;;;;;5076039;28;20032;-68
2023/04/19 04:16:38;;;;;;;15.70;7.75;;;11.50;99.90;;;;;;5076997;28;20024;-68
2023/04/19 04:19:03;;;;;;;18.00;7.93;;;11.50;99.90;;;;;;5076215;28;20051;-68
2023/04/19 04:21:29;;;;;;;13.10;7.07;;;11.60;99.90;;;;;;5076084;28;20029;-68
2023/04/19 04:23:55;;;;;;;15.75;8.05;;;11.50;99.90;;;;;;5076837;28;20025;-68
2023/04/19 04:26:20;;;;;;;14.60;7.63;;;11.50;99.90;;;;;;5076603;28;20028;-68
2023/04/19 04:28:46;;;;;;;15.05;8.00;;;11.40;99.90;;;;;;5075926;28;20028;-68
2023/04/19 04:31:11;;;;;;;13.15;7.38;;;11.40;99.90;;;;;;5076762;28;20043;-68
2023/04/19 04:33:37;;;;;;;16.33;7.85;;;11.30;99.90;;;;;;5076084;28;20029;-68
2023/04/19 04:36:04;;;;;;;14.52;7.47;;;11.30;99.90;;;;;;5076802;28;20028;-68
2023/04/19 04:38:30;;;;;;;14.30;6.93;;;11.30;99.90;;;;;;5075840;28;20028;-68
2023/04/19 04:40:55;;;;;;;12.05;6.75;;;11.30;99.90;;;;;;5076226;28;20016;-68
2023/04/19 04:43:23;;;;;;;15.30;6.30;;;11.30;99.90;;;;;;5076191;28;20111;-68
2023/04/19 04:45:49;;;;;;;12.80;6.07;;;11.20;99.90;;;;;;5076181;28;20021;-68
2023/04/19 04:48:15;;;;;;;10.98;5.70;;;11.30;99.90;;;;;;5076060;28;20024;-68
2023/04/19 04:50:41;;;;;;;12.02;6.20;;;11.40;99.90;;;;;;5075657;28;20032;-68
2023/04/19 04:53:06;;;;;;;17.08;6.45;;;11.30;99.90;;;;;;5075988;28;20024;-68
2023/04/19 04:55:33;;;;;;;10.82;5.20;;;11.20;99.90;;;;;;5075932;28;20025;-68
2023/04/19 04:57:59;;;;;;;11.13;5.68;;;11.20;99.90;;;;;;5075658;28;20027;-68
2023/04/19 05:00:25;;;;;;;9.15;5.15;;;11.20;99.90;;;;;;5075647;28;20028;-68
2023/04/19 05:02:51;;;;;;;8.98;4.80;;;11.20;99.90;;;;;;5075557;28;20031;-68
2023/04/19 05:05:16;;;;;;;9.55;5.00;;;11.20;99.90;;;;;;5075817;28;20028;-68
2023/04/19 05:07:42;;;;;;;8.00;4.70;;;11.20;99.90;;;;;;5075862;28;20048;-68
2023/04/19 05:10:08;;;;;;;11.60;3.90;;;11.20;99.90;;;;;;5075461;28;20031;-68
2023/04/19 05:12:35;;;;;;;9.57;5.13;;;11.20;99.90;;;;;;5075766;28;20028;-68
2023/04/19 05:15:01;;;;;;;9.57;5.05;;;11.20;99.90;;;;;;5075418;28;20024;-68
2023/04/19 05:17:26;;;;;;;8.82;4.97;;;11.20;99.90;;;;;;5076399;28;20028;-68
2023/04/19 05:19:52;;;;;;;9.07;4.78;;;11.20;99.90;;;;;;5075699;28;20035;-68
2023/04/19 05:22:17;;;;;;;14.38;4.95;;;11.20;99.90;;;;;;5077063;28;20021;-68
2023/04/19 05:24:43;;;;;;;6.90;3.95;;;11.20;99.90;;;;;;5080129;28;20071;-68
2023/04/19 05:27:10;;;;;;;10.10;4.38;;;11.20;99.90;;;;;;5079327;28;20029;-68
2023/04/19 05:29:35;;;;;;;6.25;3.60;;;11.10;99.90;;;;;;5079137;28;20063;-68
2023/04/19 05:32:01;;;;;;;7.63;3.88;;;11.00;99.90;;;;;;5079907;28;20021;-68
2023/04/19 05:34:26;;;;;;;6.35;3.95;;;11.10;99.90;;;;;;5079311;28;20028;-68
2023/04/19 05:36:52;;;;;;;5.68;3.55;;;11.10;99.90;;;;;;5078913;28;20016;-68
2023/04/19 05:39:17;;;;;;;6.32;3.83;;;11.10;99.90;;;;;;5078748;28;20111;-68
2023/04/19 05:41:43;;;;;;;8.18;3.97;;;11.10;99.90;;;;;;5078764;28;20120;-68
2023/04/19 05:44:08;;;;;;;5.90;3.90;;;11.20;99.90;;;;;;5079057;28;20123;-68
2023/04/19 05:46:35;;;;;;;7.05;4.28;;;11.20;99.90;;;;;;5079149;28;20024;-68
2023/04/19 05:49:01;;;;;;;7.05;4.88;;;11.10;99.90;;;;;;5079388;28;20069;-68
2023/04/19 05:51:27;;;;;;;6.03;3.83;;;11.20;99.90;;;;;;5078935;28;20028;-68
2023/04/19 05:53:53;;;;;;;8.30;4.35;;;11.30;99.90;;;;;;5078475;28;20020;-68
2023/04/19 05:56:18;;;;;;;6.90;3.90;;;11.20;99.90;;;;;;5079526;28;20027;-68
2023/04/19 05:58:44;;;;;;;9.52;4.18;;;11.20;99.90;;;;;;5078597;28;20103;-68
2023/04/19 06:01:10;;;;;;;7.90;4.38;;;11.20;99.90;;;;;;5078759;28;20021;-68
2023/04/19 06:03:35;;;;;;;6.22;3.90;;;11.30;99.90;;;;;;5078270;28;20112;-68
2023/04/19 06:06:01;;;;;;;6.30;4.00;;;11.30;99.90;;;;;;5079358;28;20030;-68
2023/04/19 06:08:26;;;;;;;9.02;4.35;;;11.30;99.90;;;;;;5078533;28;20070;-68
2023/04/19 06:10:53;;;;;;;6.25;3.70;;;11.40;99.90;;;;;;5078219;28;20040;-68
2023/04/19 06:13:19;;;;;;;8.27;3.85;;;11.30;99.90;;;;;;5078142;28;20050;-68
2023/04/19 06:15:45;;;;;;;7.47;4.13;;;11.30;99.90;;;;;;5078461;28;20021;-68
2023/04/19 06:18:11;;;;;;;5.30;3.60;;;11.30;99.90;;;;;;5078023;28;20021;-68
2023/04/19 06:20:37;;;;;;;8.18;3.72;;;11.30;99.90;;;;;;5078290;28;20119;-68
2023/04/19 06:23:03;;;;;;;5.15;3.40;;;11.30;99.90;;;;;;5078772;28;20116;-68
2023/04/19 06:25:28;;;;;;;4.65;2.97;;;11.30;99.90;;;;;;5078481;28;20058;-68
2023/04/19 06:27:54;;;;;;;7.80;4.35;;;11.10;99.90;;;;;;5077989;28;20111;-68
2023/04/19 06:30:19;;;;;;;7.00;3.00;;;11.10;99.90;;;;;;5078126;28;20029;-68
2023/04/19 06:32:45;;;;;;;7.43;3.00;;;11.10;99.90;;;;;;5078644;28;20021;-68
2023/04/19 06:35:11;;;;;;;6.00;3.42;;;11.10;99.90;;;;;;5077656;28;20025;-68
2023/04/19 06:37:36;;;;;;;4.72;3.25;;;11.10;99.90;;;;;;5077901;28;20028;-68
2023/04/19 06:40:04;;;;;;;5.07;3.33;;;11.10;99.90;;;;;;5077664;28;20081;-68
2023/04/19 06:42:29;;;;;;;6.60;3.80;;;11.20;99.90;;;;;;5078704;28;20090;-68
2023/04/19 06:44:56;;;;;;;4.97;3.08;;;11.20;99.90;;;;;;5077638;28;20025;-68
2023/04/19 06:47:21;;;;;;;9.75;3.63;;;11.10;99.90;;;;;;5077754;28;20024;-68
2023/04/19 06:49:47;;;;;;;5.53;3.03;;;11.20;99.90;;;;;;5078063;28;20029;-68
2023/04/19 06:52:13;;;;;;;5.88;3.05;;;11.20;99.90;;;;;;5077396;28;20024;-68
2023/04/19 06:54:38;;;;;;;6.97;3.40;;;11.20;99.90;;;;;;5077715;28;20024;-68
2023/04/19 06:57:04;;;;;;;6.60;3.53;;;11.30;99.90;;;;;;5078104;28;20123;-68
2023/04/19 06:59:31;;;;;;;6.90;3.65;;;11.40;99.90;;;;;;5077424;28;20048;-68
2023/04/19 07:01:57;;;;;;;12.10;4.82;;;11.50;99.90;;;;;;5077537;28;20021;-68
2023/04/19 07:04:23;;;;;;;7.43;3.58;;;11.40;99.90;;;;;;5077180;28;20067;-68
2023/04/19 07:06:49;;;;;;;5.53;3.45;;;11.40;99.90;;;;;;5077075;28;20024;-68
2023/04/19 07:09:15;;;;;;;7.50;3.38;;;11.40;99.90;;;;;;5076920;28;20174;-68
2023/04/19 07:11:40;;;;;;;5.70;3.25;;;11.50;99.90;;;;;;5077590;28;20025;-68
2023/04/19 07:14:06;;;;;;;6.55;3.53;;;11.60;99.90;;;;;;5077849;28;20020;-68
2023/04/19 07:16:32;;;;;;;4.90;3.55;;;11.80;99.90;;;;;;5077790;28;20039;-68
2023/04/19 07:18:57;;;;;;;5.55;3.35;;;12.00;99.90;;;;;;5076877;28;20020;-68
2023/04/19 07:21:31;;;;;;;6.70;3.28;;;12.00;99.90;;;;;;5076907;28;20020;-68
2023/04/19 07:23:57;;;;;;;6.40;3.30;;;12.10;99.90;;;;;;5077667;28;20093;-68
2023/04/19 07:26:22;;;;;;;6.68;3.72;;;12.20;99.90;;;;;;5077054;28;20017;-68
2023/04/19 07:28:48;;;;;;;8.13;3.40;;;12.10;99.90;;;;;;5077162;28;20024;-68
2023/04/19 07:31:15;;;;;;;5.93;3.88;;;12.10;99.90;;;;;;5076874;28;20046;-68
2023/04/19 07:33:41;;;;;;;6.35;3.63;;;12.10;99.90;;;;;;5077002;28;20052;-68
2023/04/19 07:36:07;;;;;;;7.57;3.63;;;12.20;99.90;;;;;;5076473;28;20059;-68
2023/04/19 07:38:33;;;;;;;6.35;3.15;;;12.20;99.90;;;;;;5076502;28;20064;-68
2023/04/19 07:40:59;;;;;;;6.45;3.60;;;12.30;99.90;;;;;;5077734;28;20021;-68
2023/04/19 07:43:25;;;;;;;6.20;3.20;;;12.30;99.90;;;;;;5076891;28;20025;-72
2023/04/19 07:45:51;;;;;;;8.20;3.67;;;12.30;99.90;;;;;;5076685;28;20024;-73
2023/04/19 07:48:17;;;;;;;6.70;3.97;;;12.20;99.90;;;;;;5076899;28;20017;-73
2023/04/19 07:50:42;;;;;;;6.32;3.80;;;12.20;99.90;;;;;;5076570;28;20082;-73
2023/04/19 07:53:08;;;;;;;6.80;3.78;;;12.20;99.90;;;;;;5077658;28;20020;-73
2023/04/19 07:55:34;;;;;;;8.15;4.68;;;12.20;99.90;;;;;;5076251;28;20115;-73
2023/04/19 07:58:00;;;;;;;7.03;3.75;;;12.30;99.90;;;;;;5076210;28;20024;-73
2023/04/19 08:00:26;;;;;;;5.50;3.53;;;12.20;99.90;;;;;;5076640;28;20131;-73
2023/04/19 08:02:52;;;;;;;6.82;3.53;;;12.30;99.90;;;;;;5076643;28;20044;-73
2023/04/19 08:05:17;;;;;;;6.78;3.75;;;12.10;99.90;;;;;;5077068;28;20020;-73
2023/04/19 08:07:43;;;;;;;10.57;4.00;;;12.20;99.90;;;;;;5076385;28;20119;-73
2023/04/19 08:10:10;;;;;;;5.57;3.42;;;12.30;99.90;;;;;;5076380;28;20032;-73
2023/04/19 08:12:36;;;;;;;6.38;3.83;;;12.20;99.90;;;;;;5076120;28;20024;-73
2023/04/19 08:15:03;;;;;;;5.68;3.50;;;12.10;99.90;;;;;;5076740;28;20111;-73
2023/04/19 08:17:29;;;;;;;8.73;3.92;;;12.10;99.90;;;;;;5076076;28;20036;-73
2023/04/19 08:19:54;;;;;;;6.53;3.63;;;12.30;99.90;;;;;;5076034;28;20017;-72
2023/04/19 08:22:20;;;;;;;6.57;3.53;;;12.20;99.90;;;;;;5076305;28;20021;-71
2023/04/19 08:24:47;;;;;;;6.15;3.30;;;12.30;99.90;;;;;;5076249;28;20034;-72
2023/04/19 08:27:13;;;;;;;7.45;4.40;;;12.40;99.90;;;;;;5077033;28;20047;-71
2023/04/19 08:29:39;;;;;;;9.50;4.43;;;12.40;99.90;;;;;;5076293;28;20088;-72
2023/04/19 08:32:05;;;;;;;5.80;3.65;;;12.50;99.90;;;;;;5077024;28;20016;-72
2023/04/19 08:34:34;;;;;;;7.22;3.92;;;12.50;99.90;;;;;;5075941;28;20119;-72
2023/04/19 08:36:59;;;;;;;7.43;4.18;;;12.60;99.90;;;;;;5077124;28;20070;-72
2023/04/19 08:39:25;;;;;;;8.77;4.95;;;12.60;99.90;;;;;;5076042;28;20037;-71
2023/04/19 08:41:50;;;;;;;8.68;4.05;;;12.50;99.90;;;;;;5077046;28;20103;-72
2023/04/19 08:44:17;;;;;;;8.05;3.75;;;12.50;99.90;;;;;;5075866;28;20070;-72
2023/04/19 08:46:44;;;;;;;9.43;3.90;;;12.60;99.90;;;;;;5076081;28;20079;-71
2023/04/19 08:49:10;;;;;;;10.00;3.45;;;12.70;99.90;;;;;;5076285;28;20048;-72
2023/04/19 08:51:37;;;;;;;7.32;3.90;;;12.80;99.90;;;;;;5075715;28;20016;-71
2023/04/19 08:54:06;;;;;;;12.50;4.53;;;12.90;99.90;;;;;;5075909;28;20075;-72
2023/04/19 08:56:32;;;;;;;6.35;3.58;;;12.90;99.90;;;;;;5076642;28;20013;-71
2023/04/19 08:58:57;;;;;;;7.30;4.25;;;13.00;99.90;;;;;;5079896;28;20032;-72
2023/04/19 09:01:23;;;;;;;6.82;3.45;;;13.10;99.90;;;;;;5080120;28;20028;-71
2023/04/19 09:03:49;;;;;;;8.45;3.65;;;13.20;99.90;;;;;;5079503;28;20054;-71
2023/04/19 09:06:15;;;;;;;7.50;3.70;;;13.30;99.90;;;;;;5079709;28;20024;-71
2023/04/19 09:08:41;;;;;;;6.32;3.88;;;13.40;99.90;;;;;;5079995;28;20035;-72
2023/04/19 09:11:07;;;;;;;9.25;3.45;;;13.40;99.90;;;;;;5080355;28;20017;-71
2023/04/19 09:13:35;;;;;;;6.25;3.45;;;13.40;99.90;;;;;;5079501;28;20083;-72
2023/04/19 09:16:01;;;;;;;6.28;3.72;;;13.60;99.90;;;;;;5079276;28;20012;-71
2023/04/19 09:18:26;;;;;;;6.93;3.92;;;13.60;99.90;;;;;;5079564;28;20112;-72
2023/04/19 09:20:56;;;;;;;8.40;3.58;;;13.60;99.90;;;;;;5079546;28;20046;-71
2023/04/19 09:23:24;;;;;;;6.78;3.47;;;13.70;99.90;;;;;;5079180;28;20024;-72
2023/04/19 09:26:03;;;;;;;6.15;3.33;;;13.70;99.90;;;;;;5079958;28;20020;-70
2023/04/19 09:28:29;;;;;;;4.25;3.15;;;13.80;99.90;;;;;;5080687;28;20028;-71
2023/04/19 09:30:55;;;;;;;5.00;3.33;;;13.90;99.90;;;;;;5078969;28;20077;-71
2023/04/19 09:33:30;;;;;;;7.90;3.70;;;14.00;99.90;;;;;;5079091;28;20021;-71
2023/04/19 09:35:58;;;;;;;12.55;3.95;;;14.10;99.90;;;;;;5080192;28;20028;-71
2023/04/19 09:38:23;;;;;;;11.43;3.88;;;14.20;99.90;;;;;;5078778;28;20107;-71
2023/04/19 09:40:49;;;;;;;9.68;3.78;;;14.10;99.90;;;;;;5079180;28;20032;-71
2023/04/19 09:43:24;;;;;;;10.85;3.47;;;14.10;99.90;;;;;;5080047;28;20024;-70
2023/04/19 09:45:50;;;;;;;4.63;3.20;;;14.10;99.90;;;;;;5079302;28;20025;-71
2023/04/19 09:48:16;;;;;;;5.60;3.30;;;14.20;99.90;;;;;;5080391;28;20031;-70
2023/04/19 09:50:52;;;;;;;6.25;3.30;;;14.20;99.90;;;;;;5078759;28;20024;-70
2023/04/19 09:53:19;;;;;;;6.32;3.33;;;14.20;99.90;;;;;;5079687;28;20048;-70
2023/04/19 09:55:48;;;;;;;8.63;3.10;;;14.20;99.90;;;;;;5079071;28;20031;-71
2023/04/19 09:58:15;;;;;;;11.00;3.60;;;14.10;99.90;;;;;;5079481;28;20036;-70
2023/04/19 10:00:43;;;;;;;11.98;3.33;;;14.30;99.90;;;;;;5079568;28;20028;-70
2023/04/19 10:03:09;;;;;;;5.05;2.60;;;14.40;99.90;;;;;;5078551;28;20077;-70
2023/04/19 10:05:40;;;;;;;5.22;2.58;;;14.70;99.90;;;;;;5079628;28;20036;-70
2023/04/19 10:08:10;;;;;;;5.68;2.78;;;14.70;99.90;;;;;;5078372;28;20031;-70
2023/04/19 10:10:38;;;;;;;5.13;3.10;;;14.70;99.90;;;;;;5077685;28;20020;-70
2023/04/19 10:13:07;;;;;;;5.38;2.78;;;14.70;99.90;;;;;;5078374;28;20028;-70
2023/04/19 10:15:35;;;;;;;5.95;2.72;;;14.70;99.90;;;;;;5079236;28;20025;-70
2023/04/19 10:18:02;;;;;;;6.95;2.53;;;14.90;99.90;;;;;;5078074;28;20021;-70
2023/04/19 10:20:40;;;;;;;5.70;2.67;;;15.20;99.90;;;;;;5079000;28;20029;-70
2023/04/19 10:23:08;;;;;;;7.32;2.50;;;15.30;99.90;;;;;;5079272;28;20107;-70
2023/04/19 10:25:37;;;;;;;6.93;2.70;;;15.50;99.90;;;;;;5079550;28;20020;-72
2023/04/19 10:28:03;;;;;;;4.60;2.58;;;15.60;99.90;;;;;;5077967;28;20052;-71
2023/04/19 10:30:28;;;;;;;5.97;2.60;;;15.80;99.90;;;;;;5077825;28;20052;-71
2023/04/19 10:32:58;;;;;;;3.60;2.10;;;15.90;99.90;;;;;;5078737;28;20074;-71
2023/04/19 10:35:33;;;;;;;10.15;2.33;;;16.10;99.90;;;;;;5077722;28;20071;-71
2023/04/19 10:38:18;;;;;;;5.57;2.30;;;15.80;99.90;;;;;;5078052;28;20052;-71
2023/04/19 10:40:56;;;;;;;4.57;1.85;;;15.80;97.90;;;;;;5078696;28;20027;-71
2023/04/19 10:43:28;;;;;;;3.92;1.92;;;16.10;98.20;;;;;;5077706;28;20021;-72
2023/04/19 10:45:59;;;;;;;5.88;2.13;;;16.30;98.50;;;;;;5077638;28;20053;-73
2023/04/19 10:48:32;;;;;;;2.42;1.92;;;16.60;98.50;;;;;;5078607;28;20078;-74
2023/04/19 10:50:59;;;;;;;4.15;1.75;;;16.70;97.10;;;;;;5078421;28;20108;-74
2023/04/19 10:53:43;;;;;;;3.40;2.20;;;16.80;93.90;;;;;;5078298;28;20032;-74
2023/04/19 10:56:09;;;;;;;5.03;2.13;;;16.80;95.30;;;;;;5077478;28;20023;-74
2023/04/19 10:58:59;;;;;;;2.38;1.60;;;16.90;95.20;;;;;;5078084;28;20028;-74
2023/04/19 11:01:43;;;;;;;2.50;1.80;;;17.20;94.30;;;;;;5078198;28;20054;-74
2023/04/19 11:04:26;;;;;;;7.25;1.80;;;17.30;93.10;;;;;;5078222;28;20062;-74
2023/04/19 11:06:51;;;;;;;5.18;1.90;;;17.30;91.30;;;;;;5078421;28;20021;-74
2023/04/19 11:09:24;;;;;;;3.47;1.60;;;17.40;92.30;;;;;;5078126;28;20031;-74
2023/04/19 11:11:50;;;;;;;4.85;1.52;;;17.60;92.60;;;;;;5077071;28;20021;-74
2023/04/19 11:14:16;;;;;;;7.55;1.40;;;17.90;91.60;;;;;;5077194;28;20017;-74
2023/04/19 11:16:42;;;;;;;2.55;1.60;;;18.10;93.00;;;;;;5077098;28;20021;-74
2023/04/19 11:19:07;;;;;;;6.20;1.73;;;17.90;87.90;;;;;;5076935;28;20036;-75
2023/04/19 11:21:39;;;;;;;1.73;1.35;;;17.90;81.90;;;;;;5076743;28;20035;-75
2023/04/19 11:24:11;;;;;;;3.97;1.40;;;17.90;81.30;;;;;;5076965;28;20154;-74
2023/04/19 11:26:37;;;;;;;3.33;1.27;;;17.90;82.60;;;;;;5077211;28;20039;-74
2023/04/19 11:29:05;;;;;;;2.88;1.67;;;17.80;78.70;;;;;;5078083;28;20024;-75
2023/04/19 11:31:33;;;;;;;2.58;1.27;;;18.00;81.70;;;;;;5099246;22;20037;-68
2023/04/19 11:33:59;;;;;;;3.75;1.50;;;18.20;78.90;;;;;;5077497;28;20131;-68
2023/04/19 11:36:25;;;;;;;4.25;1.48;;;18.20;80.40;;;;;;5076670;28;20016;-68
2023/04/19 11:38:52;;;;;;;3.83;1.50;;;18.00;78.30;;;;;;5076822;28;20043;-68
2023/04/19 11:41:18;;;;;;;4.53;1.13;;;17.90;79.60;;;;;;5076539;28;20081;-68
2023/04/19 11:43:45;;;;;;;1.90;1.30;;;18.00;79.00;;;;;;5076636;28;20092;-68
2023/04/19 11:46:12;;;;;;;3.22;1.52;;;18.40;78.20;;;;;;5076486;28;20021;-69
2023/04/19 11:48:38;;;;;;;13.27;1.58;;;18.70;76.20;;;;;;5077659;28;20265;-69
2023/04/19 11:51:04;;;;;;;2.67;1.50;;;18.90;73.30;;;;;;5076693;28;20114;-68
2023/04/19 11:53:31;;;;;;;8.68;1.60;;;18.80;71.90;;;;;;5077663;28;20044;-68
2023/04/19 11:56:04;;;;;;;4.35;1.77;;;19.00;77.20;;;;;;5076416;28;20021;-69
2023/04/19 11:58:34;;;;;;;5.15;1.58;;;19.30;74.50;;;;;;5076331;28;20032;-69
2023/04/19 12:01:05;;;;;;;3.30;1.65;;;19.50;73.00;;;;;;5077384;28;20017;-68
2023/04/19 12:03:31;;;;;;;3.38;1.77;;;19.50;71.40;;;;;;5076629;28;20028;-68
2023/04/19 12:06:07;;;;;;;1.40;1.20;;;19.50;69.90;;;;;;5076569;28;20074;-68
2023/04/19 12:08:45;;;;;;;4.18;1.50;;;19.80;74.90;;;;;;5077614;28;20074;-69
2023/04/19 12:11:11;;;;;;;3.05;2.00;;;20.00;72.00;;;;;;5076224;28;20074;-69
2023/04/19 12:13:39;;;;;;;2.75;1.60;;;20.20;74.10;;;;;;5076570;28;20020;-69
2023/04/19 12:16:07;;;;;;;4.22;1.70;;;20.50;73.20;;;;;;5077085;28;20027;-69
2023/04/19 12:18:48;;;;;;;1.85;1.30;;;20.50;73.50;;;;;;5077050;28;20052;-69
2023/04/19 12:21:28;;;;;;;1.70;1.30;;;20.50;69.80;;;;;;5075928;28;20020;-68
2023/04/19 12:23:55;;;;;;;2.90;1.60;;;20.40;68.70;;;;;;5076002;28;20111;-69
2023/04/19 12:26:21;;;;;;;2.90;1.80;;;20.20;65.60;;;;;;5076022;28;20078;-68
2023/04/19 12:28:46;;;;;;;2.85;1.40;;;19.90;62.70;;;;;;5076783;28;20025;-69
2023/04/19 12:31:12;;;;;;;3.70;1.77;;;19.70;64.10;;;;;;5076028;28;20033;-68
2023/04/19 12:33:37;;;;;;;3.25;1.48;;;20.00;65.60;;;;;;5080074;28;20017;-69
2023/04/19 12:36:03;;;;;;;2.92;1.80;;;20.30;65.60;;;;;;5080085;28;20090;-69
2023/04/19 12:38:28;;;;;;;5.13;1.50;;;20.70;65.40;;;;;;5081265;28;20047;-69
2023/04/19 12:40:54;;;;;;;2.50;1.50;;;20.80;64.10;;;;;;5079862;28;20025;-68